sensor_id;sensor_type;location;lat;lon;timestamp;P1;durP1;ratioP1;P2;durP2;ratioP2
11651;SDS011;5882;48.818;9.114;2023-05-27T00:00:40;57.63;;;55.33;;
11651;SDS011;5882;48.818;9.114;2023-05-27T00:03:25;62.90;;;60.42;;
11651;SDS011;5882;48.818;9.114;2023-05-27T00:06:10;87.88;;;84.63;;
11651;SDS011;5882;48.818;9.114;2023-05-27T00:08:55;119.97;;;115.40;;
11651;SDS011;5882;48.818;9.114;2023-05-27T00:11:41;147.93;;;142.48;;
11651;SDS011;5882;48.818;9.114;2023-05-27T00:14:27;80.57;;;77.47;;
11651;SDS011;5882;48.818;9.114;2023-05-27T00:17:11;73.07;;;70.22;;
11651;SDS011;5882;48.818;9.114;2023-05-27T00:19:57;53.60;;;51.47;;
11651;SDS011;5882;48.818;9.114;2023-05-27T00:22:49;36.63;;;35.13;;
11651;SDS011;5882;48.818;9.114;2023-05-27T00:25:34;34.17;;;32.88;;
11651;SDS011;5882;48.818;9.114;2023-05-27T00:28:20;32.53;;;31.17;;
11651;SDS011;5882;48.818;9.114;2023-05-27T00:31:05;27.65;;;26.55;;
11651;SDS011;5882;48.818;9.114;2023-05-27T00:33:50;36.38;;;34.97;;
11651;SDS011;5882;48.818;9.114;2023-05-27T00:36:35;29.95;;;28.75;;
11651;SDS011;5882;48.818;9.114;2023-05-27T00:39:20;29.35;;;28.20;;
11651;SDS011;5882;48.818;9.114;2023-05-27T00:42:05;27.35;;;26.25;;
11651;SDS011;5882;48.818;9.114;2023-05-27T00:44:52;28.88;;;27.73;;
11651;SDS011;5882;48.818;9.114;2023-05-27T00:47:37;27.52;;;26.45;;
11651;SDS011;5882;48.818;9.114;2023-05-27T00:50:22;28.40;;;27.30;;
11651;SDS011;5882;48.818;9.114;2023-05-27T00:53:09;28.75;;;27.65;;
11651;SDS011;5882;48.818;9.114;2023-05-27T00:55:54;32.50;;;31.20;;
11651;SDS011;5882;48.818;9.114;2023-05-27T00:58:42;38.28;;;36.78;;
11651;SDS011;5882;48.818;9.114;2023-05-27T01:01:28;49.38;;;47.42;;
11651;SDS011;5882;48.818;9.114;2023-05-27T01:04:13;60.72;;;58.45;;
11651;SDS011;5882;48.818;9.114;2023-05-27T01:07:01;65.90;;;63.40;;
11651;SDS011;5882;48.818;9.114;2023-05-27T01:09:49;53.03;;;50.95;;
11651;SDS011;5882;48.818;9.114;2023-05-27T01:12:38;54.75;;;52.60;;
11651;SDS011;5882;48.818;9.114;2023-05-27T01:15:24;39.15;;;37.45;;
11651;SDS011;5882;48.818;9.114;2023-05-27T01:18:11;25.00;;;24.02;;
11651;SDS011;5882;48.818;9.114;2023-05-27T01:21:02;32.20;;;30.70;;
11651;SDS011;5882;48.818;9.114;2023-05-27T01:23:50;29.80;;;28.58;;
11651;SDS011;5882;48.818;9.114;2023-05-27T01:26:35;19.13;;;18.33;;
11651;SDS011;5882;48.818;9.114;2023-05-27T01:29:20;15.65;;;14.85;;
11651;SDS011;5882;48.818;9.114;2023-05-27T01:32:07;15.13;;;14.52;;
11651;SDS011;5882;48.818;9.114;2023-05-27T01:34:54;15.50;;;14.90;;
11651;SDS011;5882;48.818;9.114;2023-05-27T01:37:41;15.20;;;14.60;;
11651;SDS011;5882;48.818;9.114;2023-05-27T01:40:29;16.65;;;15.85;;
11651;SDS011;5882;48.818;9.114;2023-05-27T01:43:15;17.75;;;17.00;;
11651;SDS011;5882;48.818;9.114;2023-05-27T01:46:00;13.93;;;13.27;;
11651;SDS011;5882;48.818;9.114;2023-05-27T01:48:46;16.02;;;15.27;;
11651;SDS011;5882;48.818;9.114;2023-05-27T01:51:30;17.38;;;16.63;;
11651;SDS011;5882;48.818;9.114;2023-05-27T01:54:15;14.88;;;14.27;;
11651;SDS011;5882;48.818;9.114;2023-05-27T01:57:02;13.48;;;12.88;;
11651;SDS011;5882;48.818;9.114;2023-05-27T01:59:47;12.70;;;12.10;;
11651;SDS011;5882;48.818;9.114;2023-05-27T02:02:32;13.32;;;12.75;;
11651;SDS011;5882;48.818;9.114;2023-05-27T02:05:17;15.40;;;14.73;;
11651;SDS011;5882;48.818;9.114;2023-05-27T02:08:02;50.97;;;48.97;;
11651;SDS011;5882;48.818;9.114;2023-05-27T02:10:47;96.95;;;90.00;;
11651;SDS011;5882;48.818;9.114;2023-05-27T02:13:33;733.10;;;699.17;;
11651;SDS011;5882;48.818;9.114;2023-05-27T02:16:20;24.13;;;23.08;;
11651;SDS011;5882;48.818;9.114;2023-05-27T02:19:05;246.77;;;223.60;;
11651;SDS011;5882;48.818;9.114;2023-05-27T02:21:53;2.70;;;2.33;;
11651;SDS011;5882;48.818;9.114;2023-05-27T02:24:38;2.47;;;2.33;;
11651;SDS011;5882;48.818;9.114;2023-05-27T02:27:23;2.38;;;2.28;;
11651;SDS011;5882;48.818;9.114;2023-05-27T02:30:10;2.47;;;2.30;;
11651;SDS011;5882;48.818;9.114;2023-05-27T02:32:56;3.38;;;3.17;;
11651;SDS011;5882;48.818;9.114;2023-05-27T02:35:41;2.75;;;2.55;;
11651;SDS011;5882;48.818;9.114;2023-05-27T02:38:26;3.63;;;3.42;;
11651;SDS011;5882;48.818;9.114;2023-05-27T02:41:11;10.63;;;10.13;;
11651;SDS011;5882;48.818;9.114;2023-05-27T02:43:56;28.90;;;27.70;;
11651;SDS011;5882;48.818;9.114;2023-05-27T02:46:42;19.00;;;18.25;;
11651;SDS011;5882;48.818;9.114;2023-05-27T02:49:29;142.20;;;136.30;;
11651;SDS011;5882;48.818;9.114;2023-05-27T02:52:14;353.08;;;340.25;;
11651;SDS011;5882;48.818;9.114;2023-05-27T02:54:59;380.75;;;367.10;;
11651;SDS011;5882;48.818;9.114;2023-05-27T02:57:44;292.38;;;282.13;;
11651;SDS011;5882;48.818;9.114;2023-05-27T03:00:29;365.10;;;352.33;;
11651;SDS011;5882;48.818;9.114;2023-05-27T03:03:16;379.00;;;365.58;;
11651;SDS011;5882;48.818;9.114;2023-05-27T03:06:01;350.38;;;338.10;;
11651;SDS011;5882;48.818;9.114;2023-05-27T03:08:47;445.60;;;428.85;;
11651;SDS011;5882;48.818;9.114;2023-05-27T03:11:34;562.25;;;539.50;;
11651;SDS011;5882;48.818;9.114;2023-05-27T03:14:19;368.15;;;347.75;;
11651;SDS011;5882;48.818;9.114;2023-05-27T03:17:04;2.60;;;2.40;;
11651;SDS011;5882;48.818;9.114;2023-05-27T03:19:51;10.35;;;9.88;;
11651;SDS011;5882;48.818;9.114;2023-05-27T03:22:36;10.38;;;9.77;;
11651;SDS011;5882;48.818;9.114;2023-05-27T03:25:21;94.10;;;90.55;;
11651;SDS011;5882;48.818;9.114;2023-05-27T03:28:06;81.80;;;78.75;;
11651;SDS011;5882;48.818;9.114;2023-05-27T03:30:51;132.77;;;127.97;;
11651;SDS011;5882;48.818;9.114;2023-05-27T03:33:39;395.15;;;381.63;;
11651;SDS011;5882;48.818;9.114;2023-05-27T03:36:26;437.40;;;422.17;;
11651;SDS011;5882;48.818;9.114;2023-05-27T03:39:11;81.13;;;78.07;;
11651;SDS011;5882;48.818;9.114;2023-05-27T03:41:57;172.60;;;166.60;;
11651;SDS011;5882;48.818;9.114;2023-05-27T03:44:42;241.38;;;233.35;;
11651;SDS011;5882;48.818;9.114;2023-05-27T03:47:27;355.10;;;343.05;;
11651;SDS011;5882;48.818;9.114;2023-05-27T03:50:12;285.95;;;276.40;;
11651;SDS011;5882;48.818;9.114;2023-05-27T03:52:58;253.68;;;245.10;;
11651;SDS011;5882;48.818;9.114;2023-05-27T03:55:44;236.15;;;228.05;;
11651;SDS011;5882;48.818;9.114;2023-05-27T03:58:29;47.33;;;45.33;;
11651;SDS011;5882;48.818;9.114;2023-05-27T04:01:14;205.68;;;198.52;;
11651;SDS011;5882;48.818;9.114;2023-05-27T04:04:00;307.23;;;296.42;;
11651;SDS011;5882;48.818;9.114;2023-05-27T04:06:45;45.72;;;43.22;;
11651;SDS011;5882;48.818;9.114;2023-05-27T04:09:31;158.50;;;152.82;;
11651;SDS011;5882;48.818;9.114;2023-05-27T04:12:17;446.58;;;431.23;;
11651;SDS011;5882;48.818;9.114;2023-05-27T04:15:02;453.95;;;437.88;;
11651;SDS011;5882;48.818;9.114;2023-05-27T04:17:47;229.63;;;221.75;;
11651;SDS011;5882;48.818;9.114;2023-05-27T04:20:36;76.13;;;73.30;;
11651;SDS011;5882;48.818;9.114;2023-05-27T04:23:26;415.52;;;400.77;;
11651;SDS011;5882;48.818;9.114;2023-05-27T04:26:12;138.80;;;133.70;;
11651;SDS011;5882;48.818;9.114;2023-05-27T04:28:58;35.08;;;33.65;;
11651;SDS011;5882;48.818;9.114;2023-05-27T04:31:44;15.27;;;14.57;;
11651;SDS011;5882;48.818;9.114;2023-05-27T04:34:29;9.93;;;9.52;;
11651;SDS011;5882;48.818;9.114;2023-05-27T04:37:14;5.20;;;4.93;;
11651;SDS011;5882;48.818;9.114;2023-05-27T04:40:00;10.52;;;10.13;;
11651;SDS011;5882;48.818;9.114;2023-05-27T04:42:47;20.23;;;19.20;;
11651;SDS011;5882;48.818;9.114;2023-05-27T04:45:33;18.48;;;17.63;;
11651;SDS011;5882;48.818;9.114;2023-05-27T04:48:18;60.10;;;57.75;;
11651;SDS011;5882;48.818;9.114;2023-05-27T04:51:03;53.30;;;51.25;;
11651;SDS011;5882;48.818;9.114;2023-05-27T04:53:48;19.30;;;18.42;;
11651;SDS011;5882;48.818;9.114;2023-05-27T04:56:34;18.80;;;18.00;;
11651;SDS011;5882;48.818;9.114;2023-05-27T04:59:21;7.60;;;7.20;;
11651;SDS011;5882;48.818;9.114;2023-05-27T05:02:12;5.60;;;5.30;;
11651;SDS011;5882;48.818;9.114;2023-05-27T05:05:06;6.13;;;5.75;;
11651;SDS011;5882;48.818;9.114;2023-05-27T05:07:52;4.25;;;3.95;;
11651;SDS011;5882;48.818;9.114;2023-05-27T05:10:37;4.65;;;4.35;;
11651;SDS011;5882;48.818;9.114;2023-05-27T05:13:22;3.75;;;3.53;;
11651;SDS011;5882;48.818;9.114;2023-05-27T05:16:14;3.88;;;3.58;;
11651;SDS011;5882;48.818;9.114;2023-05-27T05:18:59;3.78;;;3.58;;
11651;SDS011;5882;48.818;9.114;2023-05-27T05:21:43;3.50;;;3.20;;
11651;SDS011;5882;48.818;9.114;2023-05-27T05:24:28;3.17;;;2.92;;
11651;SDS011;5882;48.818;9.114;2023-05-27T05:27:13;3.75;;;3.55;;
11651;SDS011;5882;48.818;9.114;2023-05-27T05:29:58;4.43;;;4.15;;
11651;SDS011;5882;48.818;9.114;2023-05-27T05:32:45;4.32;;;4.13;;
11651;SDS011;5882;48.818;9.114;2023-05-27T05:35:30;4.40;;;4.18;;
11651;SDS011;5882;48.818;9.114;2023-05-27T05:38:15;5.80;;;5.40;;
11651;SDS011;5882;48.818;9.114;2023-05-27T05:41:00;4.90;;;4.57;;
11651;SDS011;5882;48.818;9.114;2023-05-27T05:43:45;4.20;;;3.92;;
11651;SDS011;5882;48.818;9.114;2023-05-27T05:46:30;4.88;;;4.65;;
11651;SDS011;5882;48.818;9.114;2023-05-27T05:49:17;4.97;;;4.57;;
11651;SDS011;5882;48.818;9.114;2023-05-27T05:52:03;4.55;;;4.35;;
11651;SDS011;5882;48.818;9.114;2023-05-27T05:54:48;8.00;;;7.53;;
11651;SDS011;5882;48.818;9.114;2023-05-27T05:57:33;3.50;;;3.17;;
11651;SDS011;5882;48.818;9.114;2023-05-27T06:00:18;4.20;;;4.00;;
11651;SDS011;5882;48.818;9.114;2023-05-27T06:03:03;8.95;;;8.48;;
11651;SDS011;5882;48.818;9.114;2023-05-27T06:05:50;4.97;;;4.68;;
11651;SDS011;5882;48.818;9.114;2023-05-27T06:08:35;7.20;;;6.80;;
11651;SDS011;5882;48.818;9.114;2023-05-27T06:11:20;8.98;;;8.50;;
11651;SDS011;5882;48.818;9.114;2023-05-27T06:14:05;4.78;;;4.47;;
11651;SDS011;5882;48.818;9.114;2023-05-27T06:16:50;7.65;;;7.22;;
11651;SDS011;5882;48.818;9.114;2023-05-27T06:19:35;43.50;;;41.63;;
11651;SDS011;5882;48.818;9.114;2023-05-27T06:22:21;345.10;;;333.23;;
11651;SDS011;5882;48.818;9.114;2023-05-27T06:25:07;67.30;;;64.70;;
11651;SDS011;5882;48.818;9.114;2023-05-27T06:27:52;223.75;;;216.15;;
11651;SDS011;5882;48.818;9.114;2023-05-27T06:30:37;144.40;;;139.13;;
11651;SDS011;5882;48.818;9.114;2023-05-27T06:33:23;163.43;;;157.50;;
11651;SDS011;5882;48.818;9.114;2023-05-27T06:36:08;59.75;;;56.08;;
11651;SDS011;5882;48.818;9.114;2023-05-27T06:42:22;532.38;;;511.58;;
11651;SDS011;5882;48.818;9.114;2023-05-27T06:45:08;584.22;;;558.50;;
11651;SDS011;5882;48.818;9.114;2023-05-27T06:47:53;597.15;;;572.08;;
11651;SDS011;5882;48.818;9.114;2023-05-27T06:50:39;554.60;;;531.47;;
11651;SDS011;5882;48.818;9.114;2023-05-27T06:53:24;548.85;;;525.13;;
11651;SDS011;5882;48.818;9.114;2023-05-27T06:56:09;505.10;;;484.88;;
11651;SDS011;5882;48.818;9.114;2023-05-27T06:58:55;524.60;;;503.75;;
11651;SDS011;5882;48.818;9.114;2023-05-27T07:01:40;456.85;;;439.35;;
11651;SDS011;5882;48.818;9.114;2023-05-27T07:04:25;476.77;;;458.30;;
11651;SDS011;5882;48.818;9.114;2023-05-27T07:07:10;1080.28;;;999.90;;
11651;SDS011;5882;48.818;9.114;2023-05-27T07:09:55;517.83;;;497.02;;
11651;SDS011;5882;48.818;9.114;2023-05-27T07:12:40;398.98;;;384.95;;
11651;SDS011;5882;48.818;9.114;2023-05-27T07:15:26;48.63;;;35.92;;
11651;SDS011;5882;48.818;9.114;2023-05-27T07:18:12;3.10;;;2.70;;
11651;SDS011;5882;48.818;9.114;2023-05-27T07:20:56;2.78;;;2.58;;
11651;SDS011;5882;48.818;9.114;2023-05-27T07:23:41;2.80;;;2.60;;
11651;SDS011;5882;48.818;9.114;2023-05-27T07:26:26;2.78;;;2.58;;
11651;SDS011;5882;48.818;9.114;2023-05-27T07:29:12;2.53;;;2.38;;
11651;SDS011;5882;48.818;9.114;2023-05-27T07:31:59;3.60;;;3.30;;
11651;SDS011;5882;48.818;9.114;2023-05-27T07:34:44;2.83;;;2.63;;
11651;SDS011;5882;48.818;9.114;2023-05-27T07:37:29;4.25;;;3.95;;
11651;SDS011;5882;48.818;9.114;2023-05-27T07:40:15;4.15;;;3.15;;
11651;SDS011;5882;48.818;9.114;2023-05-27T07:43:00;3.35;;;3.08;;
11651;SDS011;5882;48.818;9.114;2023-05-27T07:45:45;23.90;;;13.07;;
11651;SDS011;5882;48.818;9.114;2023-05-27T07:48:32;3.03;;;2.83;;
11651;SDS011;5882;48.818;9.114;2023-05-27T07:51:17;4.05;;;3.70;;
11651;SDS011;5882;48.818;9.114;2023-05-27T07:54:02;4.40;;;4.10;;
11651;SDS011;5882;48.818;9.114;2023-05-27T07:56:47;4.60;;;4.18;;
11651;SDS011;5882;48.818;9.114;2023-05-27T07:59:32;97.72;;;10.05;;
11651;SDS011;5882;48.818;9.114;2023-05-27T08:02:17;4.75;;;4.40;;
11651;SDS011;5882;48.818;9.114;2023-05-27T08:05:04;5.30;;;4.80;;
11651;SDS011;5882;48.818;9.114;2023-05-27T08:07:49;4.38;;;4.10;;
11651;SDS011;5882;48.818;9.114;2023-05-27T08:10:34;4.38;;;3.80;;
11651;SDS011;5882;48.818;9.114;2023-05-27T08:13:19;3.10;;;2.80;;
11651;SDS011;5882;48.818;9.114;2023-05-27T08:16:04;2.72;;;2.60;;
11651;SDS011;5882;48.818;9.114;2023-05-27T08:18:50;2.78;;;2.60;;
11651;SDS011;5882;48.818;9.114;2023-05-27T08:21:37;2.63;;;2.42;;
11651;SDS011;5882;48.818;9.114;2023-05-27T08:24:22;4.55;;;4.35;;
11651;SDS011;5882;48.818;9.114;2023-05-27T08:27:16;3.90;;;3.30;;
11651;SDS011;5882;48.818;9.114;2023-05-27T08:30:02;4.13;;;2.97;;
11651;SDS011;5882;48.818;9.114;2023-05-27T08:32:47;3.10;;;2.85;;
11651;SDS011;5882;48.818;9.114;2023-05-27T08:35:32;3.20;;;2.60;;
11651;SDS011;5882;48.818;9.114;2023-05-27T08:38:19;2.67;;;2.58;;
11651;SDS011;5882;48.818;9.114;2023-05-27T08:41:04;4.05;;;3.30;;
11651;SDS011;5882;48.818;9.114;2023-05-27T08:43:49;2.95;;;2.72;;
11651;SDS011;5882;48.818;9.114;2023-05-27T08:46:35;3.30;;;3.20;;
11651;SDS011;5882;48.818;9.114;2023-05-27T08:49:21;4.07;;;3.80;;
11651;SDS011;5882;48.818;9.114;2023-05-27T08:52:06;4.10;;;3.80;;
11651;SDS011;5882;48.818;9.114;2023-05-27T08:54:54;4.35;;;3.65;;
11651;SDS011;5882;48.818;9.114;2023-05-27T08:57:39;4.15;;;3.85;;
11651;SDS011;5882;48.818;9.114;2023-05-27T09:00:28;3.00;;;2.80;;
11651;SDS011;5882;48.818;9.114;2023-05-27T09:03:13;3.35;;;3.15;;
11651;SDS011;5882;48.818;9.114;2023-05-27T09:05:58;15.40;;;14.55;;
11651;SDS011;5882;48.818;9.114;2023-05-27T09:08:45;3.75;;;3.55;;
11651;SDS011;5882;48.818;9.114;2023-05-27T09:11:32;3.45;;;3.25;;
11651;SDS011;5882;48.818;9.114;2023-05-27T09:14:20;3.70;;;3.50;;
11651;SDS011;5882;48.818;9.114;2023-05-27T09:17:05;3.70;;;3.33;;
11651;SDS011;5882;48.818;9.114;2023-05-27T09:19:51;3.15;;;2.95;;
11651;SDS011;5882;48.818;9.114;2023-05-27T09:22:36;2.80;;;2.60;;
11651;SDS011;5882;48.818;9.114;2023-05-27T09:25:23;6.20;;;4.30;;
11651;SDS011;5882;48.818;9.114;2023-05-27T09:28:09;6.13;;;5.82;;
11651;SDS011;5882;48.818;9.114;2023-05-27T09:30:58;4.20;;;3.80;;
11651;SDS011;5882;48.818;9.114;2023-05-27T09:33:44;3.50;;;3.25;;
11651;SDS011;5882;48.818;9.114;2023-05-27T09:36:30;4.07;;;3.80;;
11651;SDS011;5882;48.818;9.114;2023-05-27T09:39:17;9.15;;;8.70;;
11651;SDS011;5882;48.818;9.114;2023-05-27T09:42:03;4.68;;;4.28;;
11651;SDS011;5882;48.818;9.114;2023-05-27T09:44:50;3.63;;;3.33;;
11651;SDS011;5882;48.818;9.114;2023-05-27T09:47:36;3.60;;;3.30;;
11651;SDS011;5882;48.818;9.114;2023-05-27T09:50:22;3.58;;;3.38;;
11651;SDS011;5882;48.818;9.114;2023-05-27T10:45:03;8.25;;;7.85;;
11651;SDS011;5882;48.818;9.114;2023-05-27T10:47:49;15.10;;;14.40;;
11651;SDS011;5882;48.818;9.114;2023-05-27T10:50:34;10.30;;;9.80;;
11651;SDS011;5882;48.818;9.114;2023-05-27T10:53:19;7.03;;;6.72;;
11651;SDS011;5882;48.818;9.114;2023-05-27T10:56:05;13.43;;;12.82;;
11651;SDS011;5882;48.818;9.114;2023-05-27T10:58:52;45.15;;;42.35;;
11651;SDS011;5882;48.818;9.114;2023-05-27T11:01:40;3.42;;;3.22;;
11651;SDS011;5882;48.818;9.114;2023-05-27T11:04:25;4.88;;;4.60;;
11651;SDS011;5882;48.818;9.114;2023-05-27T11:07:10;103.25;;;99.32;;
11651;SDS011;5882;48.818;9.114;2023-05-27T11:09:56;3.42;;;3.13;;
11651;SDS011;5882;48.818;9.114;2023-05-27T11:12:43;4.15;;;3.40;;
11651;SDS011;5882;48.818;9.114;2023-05-27T11:15:28;3.72;;;3.53;;
11651;SDS011;5882;48.818;9.114;2023-05-27T11:18:15;3.47;;;3.22;;
11651;SDS011;5882;48.818;9.114;2023-05-27T11:21:00;3.47;;;3.28;;
11651;SDS011;5882;48.818;9.114;2023-05-27T11:23:47;8.30;;;7.85;;
11651;SDS011;5882;48.818;9.114;2023-05-27T11:26:32;4.15;;;3.92;;
11651;SDS011;5882;48.818;9.114;2023-05-27T11:29:23;5.18;;;4.88;;
11651;SDS011;5882;48.818;9.114;2023-05-27T11:32:08;28.55;;;26.25;;
11651;SDS011;5882;48.818;9.114;2023-05-27T11:34:55;3.17;;;2.97;;
11651;SDS011;5882;48.818;9.114;2023-05-27T11:37:40;3.10;;;2.90;;
11651;SDS011;5882;48.818;9.114;2023-05-27T11:40:25;3.22;;;3.03;;
11651;SDS011;5882;48.818;9.114;2023-05-27T11:43:16;3.00;;;2.80;;
11651;SDS011;5882;48.818;9.114;2023-05-27T11:46:04;437.80;;;405.73;;
11651;SDS011;5882;48.818;9.114;2023-05-27T11:48:49;507.98;;;487.92;;
11651;SDS011;5882;48.818;9.114;2023-05-27T11:51:36;485.70;;;466.67;;
11651;SDS011;5882;48.818;9.114;2023-05-27T11:54:24;259.73;;;250.43;;
11651;SDS011;5882;48.818;9.114;2023-05-27T11:57:12;373.38;;;359.65;;
11651;SDS011;5882;48.818;9.114;2023-05-27T11:59:57;584.13;;;559.72;;
11651;SDS011;5882;48.818;9.114;2023-05-27T12:02:42;297.85;;;285.60;;
11651;SDS011;5882;48.818;9.114;2023-05-27T12:05:27;140.68;;;135.45;;
11651;SDS011;5882;48.818;9.114;2023-05-27T12:08:13;376.98;;;363.30;;
11651;SDS011;5882;48.818;9.114;2023-05-27T12:10:59;141.98;;;136.73;;
11651;SDS011;5882;48.818;9.114;2023-05-27T12:13:44;294.65;;;283.92;;
11651;SDS011;5882;48.818;9.114;2023-05-27T12:16:28;385.73;;;371.48;;
11651;SDS011;5882;48.818;9.114;2023-05-27T12:19:14;534.45;;;512.67;;
11651;SDS011;5882;48.818;9.114;2023-05-27T12:21:58;332.48;;;319.65;;
11651;SDS011;5882;48.818;9.114;2023-05-27T12:24:45;527.22;;;505.90;;
11651;SDS011;5882;48.818;9.114;2023-05-27T12:27:34;99.43;;;95.22;;
11651;SDS011;5882;48.818;9.114;2023-05-27T12:30:20;28.17;;;26.92;;
11651;SDS011;5882;48.818;9.114;2023-05-27T12:33:05;100.53;;;96.72;;
11651;SDS011;5882;48.818;9.114;2023-05-27T12:35:50;64.20;;;61.70;;
11651;SDS011;5882;48.818;9.114;2023-05-27T12:38:36;255.82;;;246.70;;
11651;SDS011;5882;48.818;9.114;2023-05-27T12:41:22;216.40;;;208.45;;
11651;SDS011;5882;48.818;9.114;2023-05-27T12:44:07;45.50;;;43.65;;
11651;SDS011;5882;48.818;9.114;2023-05-27T12:46:52;153.82;;;148.15;;
11651;SDS011;5882;48.818;9.114;2023-05-27T12:49:38;280.08;;;270.05;;
11651;SDS011;5882;48.818;9.114;2023-05-27T12:52:23;705.10;;;668.47;;
11651;SDS011;5882;48.818;9.114;2023-05-27T12:55:08;667.55;;;637.22;;
11651;SDS011;5882;48.818;9.114;2023-05-27T12:57:55;495.27;;;475.60;;
11651;SDS011;5882;48.818;9.114;2023-05-27T13:00:40;670.38;;;640.42;;
11651;SDS011;5882;48.818;9.114;2023-05-27T13:03:25;685.63;;;652.50;;
11651;SDS011;5882;48.818;9.114;2023-05-27T13:06:11;476.08;;;457.33;;
11651;SDS011;5882;48.818;9.114;2023-05-27T13:08:56;608.42;;;581.72;;
11651;SDS011;5882;48.818;9.114;2023-05-27T13:11:42;784.20;;;745.53;;
11651;SDS011;5882;48.818;9.114;2023-05-27T13:14:30;769.75;;;732.40;;
11651;SDS011;5882;48.818;9.114;2023-05-27T13:17:15;672.60;;;641.75;;
11651;SDS011;5882;48.818;9.114;2023-05-27T13:20:03;565.42;;;541.72;;
11651;SDS011;5882;48.818;9.114;2023-05-27T13:22:48;503.15;;;482.95;;
11651;SDS011;5882;48.818;9.114;2023-05-27T13:25:35;661.15;;;631.42;;
11651;SDS011;5882;48.818;9.114;2023-05-27T13:28:31;631.65;;;603.83;;
11651;SDS011;5882;48.818;9.114;2023-05-27T13:31:18;657.28;;;626.80;;
11651;SDS011;5882;48.818;9.114;2023-05-27T13:34:05;585.33;;;560.90;;
11651;SDS011;5882;48.818;9.114;2023-05-27T13:36:50;518.90;;;498.33;;
11651;SDS011;5882;48.818;9.114;2023-05-27T13:39:35;426.40;;;408.85;;
11651;SDS011;5882;48.818;9.114;2023-05-27T13:42:26;538.20;;;516.05;;
11651;SDS011;5882;48.818;9.114;2023-05-27T13:45:13;607.75;;;582.00;;
11651;SDS011;5882;48.818;9.114;2023-05-27T13:48:00;433.80;;;416.33;;
11651;SDS011;5882;48.818;9.114;2023-05-27T13:50:45;407.95;;;392.60;;
11651;SDS011;5882;48.818;9.114;2023-05-27T13:53:30;648.90;;;618.72;;
11651;SDS011;5882;48.818;9.114;2023-05-27T13:56:16;702.10;;;668.97;;
11651;SDS011;5882;48.818;9.114;2023-05-27T13:59:00;604.97;;;576.92;;
11651;SDS011;5882;48.818;9.114;2023-05-27T14:01:46;721.50;;;687.60;;
11651;SDS011;5882;48.818;9.114;2023-05-27T14:04:35;892.28;;;842.75;;
11651;SDS011;5882;48.818;9.114;2023-05-27T14:07:20;306.13;;;294.48;;
11651;SDS011;5882;48.818;9.114;2023-05-27T14:10:07;203.88;;;196.40;;
11651;SDS011;5882;48.818;9.114;2023-05-27T14:12:52;334.65;;;321.90;;
11651;SDS011;5882;48.818;9.114;2023-05-27T14:15:37;656.15;;;628.08;;
11651;SDS011;5882;48.818;9.114;2023-05-27T14:18:21;542.25;;;520.25;;
11651;SDS011;5882;48.818;9.114;2023-05-27T14:21:08;144.38;;;138.98;;
11651;SDS011;5882;48.818;9.114;2023-05-27T14:23:53;26.88;;;25.67;;
11651;SDS011;5882;48.818;9.114;2023-05-27T14:26:38;34.13;;;32.75;;
11651;SDS011;5882;48.818;9.114;2023-05-27T14:29:24;110.63;;;106.45;;
11651;SDS011;5882;48.818;9.114;2023-05-27T14:32:08;136.57;;;131.45;;
11651;SDS011;5882;48.818;9.114;2023-05-27T14:34:54;78.97;;;75.95;;
11651;SDS011;5882;48.818;9.114;2023-05-27T14:37:41;125.05;;;120.30;;
11651;SDS011;5882;48.818;9.114;2023-05-27T14:40:26;22.25;;;20.73;;
11651;SDS011;5882;48.818;9.114;2023-05-27T14:43:11;15.93;;;15.23;;
11651;SDS011;5882;48.818;9.114;2023-05-27T14:45:56;27.48;;;26.27;;
11651;SDS011;5882;48.818;9.114;2023-05-27T14:48:41;146.85;;;141.45;;
11651;SDS011;5882;48.818;9.114;2023-05-27T14:51:27;229.55;;;221.32;;
11651;SDS011;5882;48.818;9.114;2023-05-27T14:54:13;108.85;;;104.70;;
11651;SDS011;5882;48.818;9.114;2023-05-27T14:56:58;3.22;;;3.03;;
11651;SDS011;5882;48.818;9.114;2023-05-27T14:59:43;3.95;;;3.75;;
11651;SDS011;5882;48.818;9.114;2023-05-27T15:02:28;2.50;;;2.40;;
11651;SDS011;5882;48.818;9.114;2023-05-27T15:05:13;2.35;;;2.25;;
11651;SDS011;5882;48.818;9.114;2023-05-27T15:07:58;2.15;;;2.05;;
11651;SDS011;5882;48.818;9.114;2023-05-27T15:10:46;2.30;;;2.20;;
11651;SDS011;5882;48.818;9.114;2023-05-27T15:13:31;2.00;;;1.90;;
11651;SDS011;5882;48.818;9.114;2023-05-27T15:16:16;2.10;;;1.90;;
11651;SDS011;5882;48.818;9.114;2023-05-27T15:19:01;2.90;;;2.70;;
11651;SDS011;5882;48.818;9.114;2023-05-27T15:21:46;2.40;;;2.30;;
11651;SDS011;5882;48.818;9.114;2023-05-27T15:24:31;3.25;;;3.05;;
11651;SDS011;5882;48.818;9.114;2023-05-27T15:27:18;3.20;;;3.00;;
11651;SDS011;5882;48.818;9.114;2023-05-27T15:30:03;2.90;;;2.75;;
11651;SDS011;5882;48.818;9.114;2023-05-27T15:32:49;2.88;;;2.67;;
11651;SDS011;5882;48.818;9.114;2023-05-27T15:35:34;2.30;;;2.20;;
11651;SDS011;5882;48.818;9.114;2023-05-27T15:38:19;2.67;;;2.28;;
11651;SDS011;5882;48.818;9.114;2023-05-27T15:41:04;2.38;;;2.28;;
11651;SDS011;5882;48.818;9.114;2023-05-27T15:43:51;2.42;;;2.33;;
11651;SDS011;5882;48.818;9.114;2023-05-27T15:46:36;2.60;;;2.42;;
11651;SDS011;5882;48.818;9.114;2023-05-27T15:49:21;2.53;;;2.42;;
11651;SDS011;5882;48.818;9.114;2023-05-27T15:52:06;2.95;;;2.65;;
11651;SDS011;5882;48.818;9.114;2023-05-27T15:54:54;2.67;;;2.47;;
11651;SDS011;5882;48.818;9.114;2023-05-27T15:57:39;2.90;;;2.70;;
11651;SDS011;5882;48.818;9.114;2023-05-27T16:00:26;2.60;;;2.40;;
11651;SDS011;5882;48.818;9.114;2023-05-27T16:03:11;2.40;;;2.30;;
11651;SDS011;5882;48.818;9.114;2023-05-27T16:05:56;2.15;;;2.05;;
11651;SDS011;5882;48.818;9.114;2023-05-27T16:08:42;2.17;;;2.08;;
11651;SDS011;5882;48.818;9.114;2023-05-27T16:11:27;1.90;;;1.80;;
11651;SDS011;5882;48.818;9.114;2023-05-27T16:14:12;2.15;;;2.03;;
11651;SDS011;5882;48.818;9.114;2023-05-27T16:16:58;2.47;;;2.30;;
11651;SDS011;5882;48.818;9.114;2023-05-27T16:19:44;2.00;;;1.90;;
11651;SDS011;5882;48.818;9.114;2023-05-27T16:22:29;1.90;;;1.80;;
11651;SDS011;5882;48.818;9.114;2023-05-27T16:25:14;1.90;;;1.80;;
11651;SDS011;5882;48.818;9.114;2023-05-27T16:28:00;2.08;;;1.98;;
11651;SDS011;5882;48.818;9.114;2023-05-27T16:30:46;2.30;;;1.95;;
11651;SDS011;5882;48.818;9.114;2023-05-27T16:33:32;2.55;;;2.45;;
11651;SDS011;5882;48.818;9.114;2023-05-27T16:36:17;2.42;;;2.22;;
11651;SDS011;5882;48.818;9.114;2023-05-27T16:39:02;2.47;;;2.28;;
11651;SDS011;5882;48.818;9.114;2023-05-27T16:41:51;1.90;;;1.80;;
11651;SDS011;5882;48.818;9.114;2023-05-27T16:44:39;2.83;;;2.55;;
11651;SDS011;5882;48.818;9.114;2023-05-27T16:47:27;3.63;;;2.55;;
11651;SDS011;5882;48.818;9.114;2023-05-27T16:50:14;2.13;;;2.03;;
11651;SDS011;5882;48.818;9.114;2023-05-27T16:52:59;2.22;;;2.00;;
11651;SDS011;5882;48.818;9.114;2023-05-27T16:55:44;1.90;;;1.80;;
11651;SDS011;5882;48.818;9.114;2023-05-27T16:58:31;2.60;;;2.40;;
11651;SDS011;5882;48.818;9.114;2023-05-27T17:01:16;1.92;;;1.83;;
11651;SDS011;5882;48.818;9.114;2023-05-27T17:04:01;2.25;;;2.05;;
11651;SDS011;5882;48.818;9.114;2023-05-27T17:06:47;2.20;;;2.10;;
11651;SDS011;5882;48.818;9.114;2023-05-27T17:09:32;2.67;;;2.47;;
11651;SDS011;5882;48.818;9.114;2023-05-27T17:12:17;2.13;;;2.03;;
11651;SDS011;5882;48.818;9.114;2023-05-27T17:15:03;2.10;;;2.00;;
11651;SDS011;5882;48.818;9.114;2023-05-27T17:17:50;2.38;;;2.28;;
11651;SDS011;5882;48.818;9.114;2023-05-27T17:20:36;2.42;;;2.22;;
11651;SDS011;5882;48.818;9.114;2023-05-27T17:23:23;2.25;;;2.15;;